Time;durP1;ratioP1;P1;durP2;ratioP2;P2;SDS_P1;SDS_P2;PMS_P1;PMS_P2;Temp;Humidity;BMP_temperature;BMP_pressure;BME280_temperature;BME280_humidity;BME280_pressure;Samples;Min_cycle;Max_cycle;Signal;HPM_P1;HPM_P2
2023/02/09 00:00:08;;;;;;;80.87;39.00;;;;;;;-5.39;75.74;103039.63;1437881;90;21349;-82
2023/02/09 00:02:36;;;;;;;79.35;39.78;;;;;;;-5.43;75.58;103037.88;1428572;90;22952;-81
2023/02/09 00:05:04;;;;;;;80.10;39.88;;;;;;;-5.45;75.17;103032.25;1416614;91;21393;-82
2023/02/09 00:07:30;;;;;;;79.32;40.63;;;;;;;-5.46;75.01;103025.36;1436298;90;21537;-81
2023/02/09 00:09:56;;;;;;;77.37;39.60;;;;;;;-5.47;74.88;103022.75;1436220;90;21541;-82
2023/02/09 00:15:08;;;;;;;78.65;39.48;;;;;;;-5.54;75.09;103023.11;1438164;90;22332;-81
2023/02/09 00:17:35;;;;;;;73.45;35.17;;;;;;;-5.61;76.15;103026.87;1432731;90;21570;-82
2023/02/09 00:20:06;;;;;;;70.00;34.90;;;;;;;-5.67;76.45;103018.63;1433391;90;22280;-81
2023/02/09 00:22:33;;;;;;;66.30;33.78;;;;;;;-5.70;76.51;103025.05;1429771;91;21400;-79
2023/02/09 00:24:59;;;;;;;71.57;35.70;;;;;;;-5.71;76.28;103021.61;1437501;90;21371;-80
2023/02/09 00:27:25;;;;;;;63.68;33.10;;;;;;;-5.71;76.18;103019.03;1436849;91;22303;-79
2023/02/09 00:29:52;;;;;;;75.83;36.23;;;;;;;-5.73;75.97;103015.98;1412606;91;21482;-80
2023/02/09 00:32:18;;;;;;;74.07;36.88;;;;;;;-5.75;76.25;103007.38;1432421;89;21494;-82
2023/02/09 00:34:44;;;;;;;68.87;35.08;;;;;;;-5.76;76.03;103009.49;1440170;90;21393;-82
2023/02/09 00:37:11;;;;;;;77.37;36.48;;;;;;;-5.77;75.92;103005.19;1429462;90;21408;-81
2023/02/09 00:39:37;;;;;;;75.70;37.17;;;;;;;-5.82;76.57;103004.27;1415003;91;21451;-82
2023/02/09 00:42:06;;;;;;;71.33;35.60;;;;;;;-5.85;76.77;102996.48;1442950;91;22903;-81
2023/02/09 00:44:37;;;;;;;68.80;35.08;;;;;;;-5.99;77.13;102993.32;1432261;91;21364;-82
2023/02/09 00:47:06;;;;;;;72.12;32.58;;;;;;;-5.99;77.13;102993.32;1435854;90;21452;-81
2023/02/09 00:49:32;;;;;;;73.87;35.73;;;;;;;-6.00;76.69;102998.05;1433703;90;21475;-81
2023/02/09 00:51:59;;;;;;;73.95;35.73;;;;;;;-6.00;76.93;102992.03;1434612;90;21415;-82
2023/02/09 00:54:25;;;;;;;69.87;35.15;;;;;;;-6.04;78.35;102996.28;1434266;90;21541;-81
2023/02/09 00:56:51;;;;;;;71.12;37.33;;;;;;;-6.05;77.51;102987.22;1442667;90;21408;-82
2023/02/09 00:59:18;;;;;;;68.65;35.65;;;;;;;-6.07;77.89;102985.04;1431579;90;21408;-83
2023/02/09 01:01:44;;;;;;;69.67;33.40;;;;;;;-6.07;77.76;102980.77;1435765;91;22348;-82
2023/02/09 01:04:12;;;;;;;64.27;33.65;;;;;;;-6.06;77.96;102980.34;1439784;90;21378;-79
2023/02/09 01:06:39;;;;;;;68.80;31.90;;;;;;;-6.09;77.86;102974.72;1437908;91;21401;-81
2023/02/09 01:09:05;;;;;;;65.03;34.05;;;;;;;-6.14;77.85;102976.36;1435904;90;21485;-80
2023/02/09 01:11:31;;;;;;;67.50;34.60;;;;;;;-6.18;78.32;102979.76;1440360;90;21437;-83
2023/02/09 01:13:59;;;;;;;63.68;32.67;;;;;;;-6.26;78.98;102983.94;1430462;91;22273;-81
2023/02/09 01:16:30;;;;;;;65.85;30.70;;;;;;;-6.28;77.75;102985.61;1439395;90;21453;-81
2023/02/09 01:19:00;;;;;;;67.30;31.05;;;;;;;-6.31;78.78;102986.86;1439687;91;21493;-81
2023/02/09 01:21:26;;;;;;;63.78;32.93;;;;;;;-6.38;80.15;102984.20;1440669;90;21615;-81
2023/02/09 01:23:53;;;;;;;73.40;35.85;;;;;;;-6.36;78.86;102976.08;1428409;91;21311;-81
2023/02/09 01:26:19;;;;;;;67.85;33.35;;;;;;;-6.35;78.52;102970.48;1433467;90;21327;-81
2023/02/09 01:28:52;;;;;;;76.37;37.53;;;;;;;-6.36;78.26;102967.45;1434849;90;21371;-82
2023/02/09 01:31:29;;;;;;;80.95;36.75;;;;;;;-6.31;77.88;102968.81;1437726;90;22483;-80
2023/02/09 01:33:58;;;;;;;70.32;33.20;;;;;;;-6.29;78.70;102968.42;1441647;91;21378;-81
2023/02/09 01:36:25;;;;;;;76.90;37.50;;;;;;;-6.36;78.89;102965.77;1436540;90;21864;-81
2023/02/09 01:38:54;;;;;;;76.72;37.45;;;;;;;-6.42;79.09;102965.65;1433830;90;21393;-80
2023/02/09 01:41:22;;;;;;;76.65;36.42;;;;;;;-6.48;79.58;102973.29;1440706;91;21394;-81
2023/02/09 01:44:08;;;;;;;83.65;39.67;;;;;;;-6.55;80.00;102965.47;1437176;90;21333;-82
2023/02/09 01:46:36;;;;;;;87.08;38.90;;;;;;;-6.61;80.40;102965.81;1435744;91;21599;-80
2023/02/09 01:49:26;;;;;;;76.12;36.70;;;;;;;-6.61;79.88;102966.23;1441792;90;21467;-82
2023/02/09 01:52:00;;;;;;;81.35;40.08;;;;;;;-6.57;79.19;102960.70;1436152;90;21319;-82
2023/02/09 01:54:32;;;;;;;68.80;34.40;;;;;;;-6.56;78.81;102949.55;1440617;91;21552;-81
2023/02/09 01:57:03;;;;;;;85.60;38.73;;;;;;;-6.55;79.03;102948.30;1433415;91;21578;-82
2023/02/09 01:59:33;;;;;;;80.60;39.53;;;;;;;-6.60;79.81;102942.20;1435027;90;21334;-82
2023/02/09 02:02:01;;;;;;;86.15;41.80;;;;;;;-6.58;78.80;102943.09;1425097;90;21525;-82
2023/02/09 02:04:29;;;;;;;77.05;36.58;;;;;;;-6.59;78.68;102934.50;1444653;90;21415;-80
2023/02/09 02:06:59;;;;;;;85.32;40.17;;;;;;;-6.57;78.25;102931.94;1425022;91;22961;-81
2023/02/09 02:09:26;;;;;;;82.12;39.18;;;;;;;-6.53;78.34;102932.84;1431423;91;21644;-80
2023/02/09 02:11:52;;;;;;;75.67;38.30;;;;;;;-6.55;78.37;102930.69;1437803;90;21304;-80
2023/02/09 02:14:35;;;;;;;80.75;39.60;;;;;;;-6.56;77.82;102929.80;1435890;91;22244;-80
2023/02/09 02:17:22;;;;;;;80.10;36.98;;;;;;;-6.56;77.56;102931.08;1437259;91;21459;-80
2023/02/09 02:20:12;;;;;;;68.05;34.05;;;;;;;-6.59;77.61;102920.34;1442256;91;21386;-80
2023/02/09 02:23:01;;;;;;;66.25;32.00;;;;;;;-6.61;78.28;102918.58;1438970;91;21532;-80
2023/02/09 02:25:41;;;;;;;69.45;34.18;;;;;;;-6.64;78.71;102910.81;1435221;90;21474;-81
2023/02/09 02:28:38;;;;;;;74.03;34.20;;;;;;;-6.66;79.25;102912.48;1404035;91;21545;-81
2023/02/09 02:31:29;;;;;;;64.60;32.28;;;;;;;-6.68;79.36;102916.73;1442478;90;21407;-81
2023/02/09 02:34:22;;;;;;;68.45;34.55;;;;;;;-6.64;78.24;102917.25;1437212;91;21430;-81
2023/02/09 02:37:05;;;;;;;65.70;32.73;;;;;;;-6.62;78.72;102914.25;1430834;91;21601;-81
2023/02/09 02:39:41;;;;;;;69.60;33.48;;;;;;;-6.61;78.44;102919.87;1425945;91;21320;-80
2023/02/09 02:45:17;;;;;;;60.50;31.33;;;;;;;-6.66;78.51;102917.21;1440181;90;21341;-80
2023/02/09 02:47:52;;;;;;;65.95;31.73;;;;;;;-6.69;78.80;102911.16;1436051;91;21563;-81
2023/02/09 02:50:23;;;;;;;66.87;32.40;;;;;;;-6.70;78.44;102906.43;1433027;91;21559;-81
2023/02/09 02:52:51;;;;;;;;;;;;;;;-6.69;78.11;102913.73;1444059;91;22419;-81
2023/02/09 02:55:20;;;;;;;65.65;30.65;;;;;;;-6.69;77.89;102909.86;1437333;90;20417;-81
2023/02/09 02:57:51;;;;;;;66.33;31.93;;;;;;;-6.69;77.70;102909.44;1435546;91;22413;-81
2023/02/09 03:00:31;;;;;;;54.00;28.77;;;;;;;-6.75;78.56;102917.08;1445595;90;22407;-81
2023/02/09 03:03:02;;;;;;;73.35;34.50;;;;;;;-6.81;79.17;102921.70;1433155;90;21971;-82
2023/02/09 03:05:30;;;;;;;67.30;32.50;;;;;;;-6.83;79.08;102919.52;1419525;91;21423;-81
2023/02/09 03:07:56;;;;;;;74.22;38.40;;;;;;;-6.82;78.36;102918.70;1422238;91;21490;-81
2023/02/09 03:10:36;;;;;;;70.47;33.53;;;;;;;-6.84;78.17;102907.50;1437206;90;21467;-83
2023/02/09 03:13:38;;;;;;;65.62;32.48;;;;;;;-6.86;78.36;102911.75;1434543;91;21371;-81
2023/02/09 03:16:29;;;;;;;74.30;36.95;;;;;;;-6.86;78.17;102918.62;1432441;90;21393;-80
2023/02/09 03:19:12;;;;;;;72.40;32.17;;;;;;;-6.87;77.63;102909.17;1433816;90;21475;-82
2023/02/09 03:21:53;;;;;;;61.83;35.33;;;;;;;-6.96;78.56;102911.18;1423855;91;21416;-81
2023/02/09 03:24:42;;;;;;;74.75;38.45;;;;;;;-6.98;78.45;102918.00;1435842;90;21527;-81
2023/02/09 03:27:26;;;;;;;73.78;35.40;;;;;;;-7.01;79.08;102915.80;1438852;90;21474;-81
2023/02/09 03:29:57;;;;;;;69.30;32.73;;;;;;;-7.04;79.42;102912.33;1441018;90;21416;-81
2023/02/09 03:32:25;;;;;;;69.27;35.38;;;;;;;-7.03;79.62;102911.91;1431723;90;21503;-81
2023/02/09 03:34:51;;;;;;;67.53;34.85;;;;;;;-7.03;79.47;102906.75;1440339;91;21372;-83
2023/02/09 03:37:18;;;;;;;71.92;36.63;;;;;;;-7.04;80.39;102907.19;1430691;90;21371;-82
2023/02/09 03:39:45;;;;;;;70.20;36.98;;;;;;;-7.01;80.16;102910.23;1441920;91;21275;-81
2023/02/09 03:42:11;;;;;;;71.62;37.03;;;;;;;-7.01;79.85;102911.52;1435318;90;21585;-82
2023/02/09 03:44:38;;;;;;;74.85;36.08;;;;;;;-7.03;80.29;102906.75;1445298;91;21349;-82
2023/02/09 03:47:08;;;;;;;79.35;36.80;;;;;;;-7.06;80.13;102909.28;1425037;90;22236;-82
2023/02/09 04:30:21;;;;;;;90.38;42.13;;;;;;;-7.32;80.93;102880.11;1436260;90;22347;-82
2023/02/09 04:32:48;;;;;;;86.75;42.30;;;;;;;-7.31;80.41;102883.55;1437751;90;21977;-81
2023/02/09 04:35:14;;;;;;;84.00;42.27;;;;;;;-7.33;80.47;102884.83;1443970;91;21606;-82
2023/02/09 04:37:41;;;;;;;84.58;42.58;;;;;;;-7.35;80.58;102881.34;1432781;90;21438;-82
2023/02/09 04:40:09;;;;;;;79.75;38.35;;;;;;;-7.32;80.25;102885.69;1433840;90;22340;-81
2023/02/09 04:42:35;;;;;;;76.42;36.42;;;;;;;-7.32;80.35;102885.69;1438699;91;21528;-83
2023/02/09 04:45:02;;;;;;;81.70;41.53;;;;;;;-7.31;80.16;102887.41;1431692;90;22817;-82
2023/02/09 04:47:28;;;;;;;76.37;38.58;;;;;;;-7.31;79.64;102881.87;1436378;90;22178;-83
2023/02/09 04:49:54;;;;;;;74.95;37.23;;;;;;;-7.27;79.55;102880.20;1432705;90;22568;-83
2023/02/09 04:52:21;;;;;;;85.00;40.30;;;;;;;-7.24;79.39;102879.39;1421726;91;21373;-83
2023/02/09 04:54:47;;;;;;;81.60;41.75;;;;;;;-7.24;79.61;102887.11;1431775;90;21320;-82
2023/02/09 04:59:43;;;;;;;81.55;41.00;;;;;;;-7.29;79.97;102886.59;1396430;91;21907;-81
2023/02/09 05:02:10;;;;;;;80.65;36.20;;;;;;;-7.26;80.29;102879.35;1431436;91;21379;-81
2023/02/09 05:04:36;;;;;;;69.72;34.88;;;;;;;-7.21;80.70;102875.58;1435979;90;21534;-81
2023/02/09 05:07:03;;;;;;;66.85;34.83;;;;;;;-7.15;80.23;102876.53;1433751;90;21364;-81
2023/02/09 05:09:29;;;;;;;73.17;36.05;;;;;;;-7.12;80.11;102868.00;1433441;90;21349;-82
2023/02/09 05:11:55;;;;;;;69.35;35.50;;;;;;;-7.06;79.71;102865.52;1429225;90;22265;-84
2023/02/09 05:14:22;;;;;;;73.40;35.75;;;;;;;-7.03;80.03;102870.72;1440579;91;21393;-82
2023/02/09 05:16:48;;;;;;;74.17;35.60;;;;;;;-7.02;79.64;102862.14;1433758;90;21541;-84
2023/02/09 05:19:14;;;;;;;73.25;34.65;;;;;;;-7.10;79.63;102860.75;1441222;90;21438;-84
2023/02/09 05:21:40;;;;;;;70.05;35.73;;;;;;;-7.13;79.32;102864.99;1438643;90;21348;-82
2023/02/09 05:24:07;;;;;;;73.75;35.50;;;;;;;-7.17;79.14;102864.48;1437191;91;22206;-82
2023/02/09 05:26:33;;;;;;;70.70;34.75;;;;;;;-7.19;79.03;102863.58;1435945;90;22266;-82
2023/02/09 05:28:59;;;;;;;69.80;35.95;;;;;;;-7.19;78.92;102865.77;1431385;90;21409;-82
2023/02/09 05:31:26;;;;;;;70.67;35.08;;;;;;;-7.19;78.76;102862.30;1421528;90;21453;-81
2023/02/09 05:33:52;;;;;;;64.40;34.90;;;;;;;-7.20;79.46;102858.86;1433196;90;21556;-79
2023/02/09 05:36:18;;;;;;;72.50;35.03;;;;;;;-7.23;79.70;102863.95;1441025;90;22334;-81
2023/02/09 05:38:45;;;;;;;68.80;35.63;;;;;;;-7.24;79.46;102862.66;1440581;90;21888;-82
2023/02/09 05:42:14;;;;;;;77.95;37.20;;;;;;;-7.24;79.29;102857.09;1440847;90;22237;-81
2023/02/09 05:43:43;;;;;;;66.33;34.13;;;;;;;-7.29;79.51;102862.58;1437196;91;21562;-81
2023/02/09 05:46:10;;;;;;;76.75;40.70;;;;;;;-7.33;79.79;102861.66;1436464;90;21393;-81
2023/02/09 05:48:36;;;;;;;80.32;39.67;;;;;;;-7.40;80.35;102866.24;1432465;90;22083;-81
2023/02/09 05:51:02;;;;;;;82.37;39.27;;;;;;;-7.46;79.87;102868.72;1436488;90;21356;-81
2023/02/09 05:53:29;;;;;;;75.40;36.17;;;;;;;-7.46;80.36;102875.58;1436610;90;22406;-81
2023/02/09 05:55:55;;;;;;;84.60;35.33;;;;;;;-7.43;79.71;102872.62;1443791;89;21363;-80
2023/02/09 05:58:21;;;;;;;80.67;38.45;;;;;;;-7.35;79.51;102880.06;1440040;90;21445;-80
2023/02/09 06:00:47;;;;;;;75.05;37.80;;;;;;;-7.30;79.28;102879.73;1440403;90;22177;-81
2023/02/09 06:03:13;;;;;;;98.22;41.80;;;;;;;-7.26;78.93;102878.92;1416220;91;22229;-81
2023/02/09 06:05:39;;;;;;;78.37;38.33;;;;;;;-7.18;78.74;102885.92;1440641;91;21312;-81
2023/02/09 06:08:05;;;;;;;76.02;37.93;;;;;;;-7.15;78.45;102896.27;1434895;91;21408;-81
2023/02/09 06:10:32;;;;;;;81.85;41.75;;;;;;;-7.15;78.10;102898.84;1431773;90;21370;-83
2023/02/09 06:12:58;;;;;;;98.35;46.18;;;;;;;-7.16;77.87;102896.69;1438050;91;22007;-81
2023/02/09 06:15:24;;;;;;;104.83;48.52;;;;;;;-7.12;77.73;102897.17;1441465;91;21371;-81
2023/02/09 06:17:50;;;;;;;94.17;46.92;;;;;;;-7.07;77.71;102894.69;1439471;90;22435;-81
2023/02/09 06:20:16;;;;;;;107.22;47.03;;;;;;;-6.99;77.84;102896.97;1423884;91;21349;-80
2023/02/09 06:22:43;;;;;;;90.07;45.52;;;;;;;-6.93;77.95;102900.92;1440226;90;21438;-82
2023/02/09 06:25:09;;;;;;;111.10;53.17;;;;;;;-6.90;78.46;102902.27;1415370;91;21341;-83
2023/02/09 06:27:36;;;;;;;108.83;54.83;;;;;;;-6.94;78.79;102897.02;1435990;91;22503;-82
2023/02/09 06:30:02;;;;;;;122.37;54.23;;;;;;;-6.94;78.69;102897.89;1432345;90;21474;-79
2023/02/09 06:32:29;;;;;;;143.32;65.40;;;;;;;-6.94;79.11;102908.61;1431152;91;21276;-83
2023/02/09 06:34:55;;;;;;;117.22;53.08;;;;;;;-6.91;79.30;102908.23;1431600;90;21581;-82
2023/02/09 06:37:22;;;;;;;108.12;48.80;;;;;;;-6.93;79.25;102903.50;1437410;90;21407;-81
2023/02/09 06:39:48;;;;;;;96.42;46.20;;;;;;;-6.89;79.30;102909.13;1435474;90;22222;-85
2023/02/09 06:42:14;;;;;;;91.85;44.88;;;;;;;-6.81;79.11;102907.55;1434739;91;21384;-82
2023/02/09 06:44:40;;;;;;;97.85;45.10;;;;;;;-6.78;79.06;102903.30;1429634;90;21371;-81
2023/02/09 06:47:07;;;;;;;89.30;42.20;;;;;;;-6.68;79.04;102907.72;1437389;90;21593;-81
2023/02/09 06:49:33;;;;;;;99.22;46.60;;;;;;;-6.60;78.92;102912.14;1430462;90;21541;-81
2023/02/09 06:51:59;;;;;;;92.85;45.38;;;;;;;-6.55;78.79;102905.78;1422347;91;21408;-82
2023/02/09 06:54:28;;;;;;;94.83;47.85;;;;;;;-6.46;78.73;102903.33;1432760;91;21334;-85
2023/02/09 06:56:54;;;;;;;94.92;49.05;;;;;;;-6.47;78.53;102904.58;1431717;91;21343;-84
2023/02/09 06:59:21;;;;;;;97.27;49.80;;;;;;;-6.40;78.44;102911.57;1442477;91;22272;-84
2023/02/09 07:01:51;;;;;;;100.35;48.42;;;;;;;-6.31;78.49;102903.09;1437237;90;21349;-85
2023/02/09 07:04:17;;;;;;;95.05;49.73;;;;;;;-6.20;78.64;102902.39;1434854;91;21356;-85
2023/02/09 07:06:43;;;;;;;96.78;49.13;;;;;;;-6.02;78.53;102906.04;1438936;91;22193;-88
2023/02/09 07:09:09;;;;;;;101.58;50.63;;;;;;;-5.85;78.54;102907.50;1416645;91;21370;-87
2023/02/09 07:11:36;;;;;;;108.35;53.10;;;;;;;-5.71;78.22;102909.81;1440303;90;21394;-87
2023/02/09 07:14:02;;;;;;;105.52;50.80;;;;;;;-5.60;77.75;102914.66;1434266;90;21526;-86
2023/02/09 07:16:29;;;;;;;106.90;51.83;;;;;;;-5.54;76.85;102920.31;1439530;90;21319;-87
2023/02/09 07:18:55;;;;;;;92.12;46.85;;;;;;;-5.45;76.86;102925.56;1441423;90;21541;-85
2023/02/09 07:21:21;;;;;;;98.55;48.90;;;;;;;-5.49;75.94;102926.40;1433928;90;22325;-86
2023/02/09 07:23:48;;;;;;;97.37;49.42;;;;;;;-5.47;76.04;102925.56;1442321;90;21527;-88
2023/02/09 07:26:16;;;;;;;104.03;52.93;;;;;;;-5.40;76.37;102924.34;1421157;91;21378;-83
2023/02/09 07:28:44;;;;;;;100.00;49.58;;;;;;;-5.33;76.48;102932.56;1436603;90;22413;-86
2023/02/09 07:31:13;;;;;;;100.65;51.58;;;;;;;-5.37;76.73;102937.27;1420320;91;21379;-88
2023/02/09 07:33:39;;;;;;;84.47;46.18;;;;;;;-5.30;77.04;102932.59;1435029;90;22354;-84
2023/02/09 07:36:09;;;;;;;92.92;47.27;;;;;;;-5.29;76.61;102924.87;1418573;91;21445;-84
2023/02/09 07:38:37;;;;;;;84.25;44.08;;;;;;;-5.13;76.46;102925.01;1434070;91;22591;-86
2023/02/09 07:41:05;;;;;;;83.95;45.48;;;;;;;-5.04;76.28;102923.79;1362636;91;21201;-87
2023/02/09 07:43:32;;;;;;;97.05;52.62;;;;;;;-4.89;76.41;102924.34;1362289;90;21375;-87
2023/02/09 07:46:02;;;;;;;88.72;43.78;;;;;;;-4.77;76.01;102925.31;1369355;90;22073;-86
2023/02/09 07:48:29;;;;;;;120.30;57.70;;;;;;;-4.68;75.75;102921.93;1419419;92;21434;-84
2023/02/09 07:50:55;;;;;;;962.12;495.02;;;;;;;-4.56;75.40;102924.59;1439632;90;22449;-85
2023/02/09 07:53:22;;;;;;;365.50;157.30;;;;;;;-4.47;75.13;102922.92;1419805;91;22243;-86
2023/02/09 07:55:48;;;;;;;115.80;55.35;;;;;;;-4.30;75.18;102918.72;1434886;90;21378;-84
2023/02/09 07:58:17;;;;;;;93.52;45.67;;;;;;;-4.11;75.15;102914.51;1438026;90;21444;-85
2023/02/09 08:00:50;;;;;;;74.40;37.28;;;;;;;-3.98;74.10;102912.83;1419953;91;21602;-87
2023/02/09 08:03:21;;;;;;;71.35;39.45;;;;;;;-3.93;73.19;102914.58;1361705;90;21246;-86
2023/02/09 08:06:06;;;;;;;103.72;56.28;;;;;;;-3.78;73.41;102909.88;1516633;91;22031;-86
2023/02/09 08:08:32;;;;;;;69.40;38.42;;;;;;;-3.69;72.67;102902.13;1516440;90;21443;-82
2023/02/09 08:11:00;;;;;;;72.58;39.25;;;;;;;-3.47;73.56;102904.78;1369826;91;22252;-87
2023/02/09 08:13:31;;;;;;;98.55;54.63;;;;;;;-3.31;72.72;102898.78;1363653;90;21299;-84
2023/02/09 08:16:03;;;;;;;97.47;57.83;;;;;;;-3.18;71.03;102903.52;1517298;90;21193;-86
2023/02/09 08:18:35;;;;;;;64.40;32.90;;;;;;;-2.99;72.18;102899.22;1400164;90;22193;-86
2023/02/09 08:21:08;;;;;;;74.27;37.93;;;;;;;-2.86;72.06;102899.62;1366694;91;21275;-88
2023/02/09 08:23:35;;;;;;;58.02;31.65;;;;;;;-2.68;71.78;102905.66;1365867;90;21321;-86
2023/02/09 08:26:07;;;;;;;76.22;37.38;;;;;;;-2.55;69.08;102899.16;1363264;90;21475;-87
2023/02/09 08:28:34;;;;;;;64.30;32.17;;;;;;;-2.41;70.23;102899.12;1516641;91;21143;-86
2023/02/09 08:31:00;;;;;;;59.93;35.25;;;;;;;-2.34;68.51;102902.12;1363973;91;21230;-87
2023/02/09 08:33:27;;;;;;;60.50;32.67;;;;;;;-2.27;68.51;102901.25;1366414;90;21306;-88
2023/02/09 08:35:54;;;;;;;53.95;30.32;;;;;;;-2.15;68.52;102896.89;1361847;91;21360;-88
2023/02/09 08:38:20;;;;;;;54.73;30.52;;;;;;;-2.16;67.01;102894.70;1364378;90;21310;-83
2023/02/09 08:40:46;;;;;;;55.98;30.32;;;;;;;-1.98;67.35;102898.98;1363809;90;22171;-86
2023/02/09 08:43:13;;;;;;;65.85;31.45;;;;;;;-1.95;66.22;102902.00;1506351;91;21364;-85
2023/02/09 08:45:41;;;;;;;70.55;38.30;;;;;;;-1.89;65.61;102894.17;1364433;90;21239;-86
2023/02/09 08:48:09;;;;;;;105.15;59.30;;;;;;;-1.82;66.39;102892.82;1362726;90;22274;-86
2023/02/09 08:50:37;;;;;;;59.03;31.23;;;;;;;-1.71;67.61;102890.61;1362581;91;21224;-85
2023/02/09 08:53:05;;;;;;;52.50;30.37;;;;;;;-1.56;66.07;102891.81;1362650;90;21238;-86
2023/02/09 08:55:32;;;;;;;53.48;30.45;;;;;;;-1.43;66.47;102891.31;1362366;90;22097;-84
2023/02/09 08:57:59;;;;;;;65.40;36.28;;;;;;;-1.26;66.48;102889.45;1363411;91;21439;-85
2023/02/09 09:00:26;;;;;;;53.63;30.88;;;;;;;-1.26;65.01;102892.50;1400745;90;21532;-85
2023/02/09 09:02:52;;;;;;;58.75;33.08;;;;;;;-1.09;65.38;102890.63;1437620;90;21902;-86
2023/02/09 09:05:18;;;;;;;61.80;33.45;;;;;;;-0.95;65.34;102891.37;1437010;91;21539;-86
2023/02/09 09:07:45;;;;;;;62.13;33.83;;;;;;;-0.84;64.45;102887.80;1441466;91;21260;-85
2023/02/09 09:10:11;;;;;;;53.95;33.13;;;;;;;-0.76;64.16;102885.98;1431695;90;21416;-83
2023/02/09 09:12:38;;;;;;;64.82;37.28;;;;;;;-0.71;63.47;102884.22;1434600;90;22236;-83
2023/02/09 09:15:05;;;;;;;54.67;32.75;;;;;;;-0.58;64.04;102882.34;1432712;90;21564;-86
2023/02/09 09:17:31;;;;;;;54.30;30.60;;;;;;;-0.40;64.92;102879.97;1440905;90;21399;-83
2023/02/09 09:19:58;;;;;;;60.67;33.70;;;;;;;-0.29;63.07;102877.69;1435594;90;21481;-82
2023/02/09 09:22:24;;;;;;;53.00;31.57;;;;;;;-0.21;62.78;102876.28;1440761;91;21328;-82
2023/02/09 09:24:53;;;;;;;54.18;31.48;;;;;;;-0.08;63.63;102873.96;1437044;90;21504;-82
2023/02/09 09:27:19;;;;;;;48.83;28.77;;;;;;;0.04;63.36;102870.33;1435204;90;21408;-82
2023/02/09 09:29:45;;;;;;;57.70;26.47;;;;;;;0.20;63.63;102866.66;1435593;91;21865;-82
2023/02/09 09:32:16;;;;;;;77.77;36.60;;;;;;;0.34;61.86;102869.03;1441648;91;21567;-87
2023/02/09 09:34:41;;;;;;;113.23;52.33;;;;;;;0.55;61.49;102870.48;1438342;91;21695;-87
2023/02/09 09:37:08;;;;;;;128.17;56.57;;;;;;;1.02;58.67;102862.77;1421697;91;21608;-88
2023/02/09 09:39:34;;;;;;;281.37;120.87;;;;;;;1.71;58.19;102859.71;1437803;91;22550;-87
2023/02/09 09:42:01;;;;;;;244.03;101.90;;;;;;;3.33;55.90;102856.30;1437580;90;21733;-89
2023/02/09 09:44:43;;;;;;;89.53;50.47;;;;;;;3.33;55.90;102856.30;1436743;91;22333;-82
2023/02/09 09:47:14;;;;;;;106.30;57.37;;;;;;;3.54;49.83;102858.81;1428046;90;22957;-83
2023/02/09 09:49:40;;;;;;;50.00;29.93;;;;;;;4.45;52.66;102851.70;1433125;91;21393;-84
2023/02/09 09:52:25;;;;;;;32.63;21.13;;;;;;;5.22;51.34;102851.78;1425878;91;21453;-83
2023/02/09 09:54:51;;;;;;;40.90;23.27;;;;;;;5.77;51.26;102848.46;1434421;91;22303;-81
2023/02/09 09:57:28;;;;;;;29.77;19.83;;;;;;;6.27;50.05;102848.34;1437464;91;21430;-83
2023/02/09 09:59:56;;;;;;;27.97;19.47;;;;;;;6.71;47.49;102852.25;1431743;91;21483;-87
2023/02/09 10:02:33;;;;;;;35.40;23.33;;;;;;;6.89;44.86;102847.14;1439268;90;21437;-77
2023/02/09 10:05:19;;;;;;;31.60;20.67;;;;;;;6.96;43.79;102840.68;1433368;91;22222;-80
2023/02/09 10:08:06;;;;;;;32.67;22.47;;;;;;;7.38;45.88;102837.12;1436671;90;22184;-81
2023/02/09 10:11:09;;;;;;;36.87;26.37;;;;;;;7.67;44.78;102828.75;1396920;92;22100;-79
2023/02/09 10:13:49;;;;;;;44.43;30.63;;;;;;;7.56;39.57;102824.42;1516599;91;21142;-78
2023/02/09 10:16:27;;;;;;;28.65;18.62;;;;;;;7.99;43.56;102823.77;1516733;90;21177;-80
2023/02/09 10:18:58;;;;;;;24.23;17.77;;;;;;;8.21;42.39;102818.33;1372808;91;21548;-80
2023/02/09 10:21:29;;;;;;;;;;;;;;;7.71;37.32;102810.16;1438289;90;21349;-85
2023/02/09 10:24:03;;;;;;;;;;;;;;;8.09;38.91;102809.69;1439251;90;20432;-84
2023/02/09 10:26:33;;;;;;;29.23;19.57;;;;;;;7.84;37.50;102808.67;1437009;91;20344;-85
2023/02/09 10:29:14;;;;;;;25.85;19.50;;;;;;;8.21;39.85;102810.41;1434490;90;21687;-84
2023/02/09 10:32:00;;;;;;;28.27;18.57;;;;;;;8.55;41.06;102805.69;1437839;91;21519;-84
2023/02/09 10:34:40;;;;;;;27.37;19.40;;;;;;;8.56;40.94;102800.79;1435250;90;21386;-85
2023/02/09 10:37:38;;;;;;;26.95;19.37;;;;;;;9.09;37.94;102795.04;1438126;91;22214;-86
2023/02/09 10:40:27;;;;;;;29.00;20.33;;;;;;;9.09;37.94;102795.04;1439710;90;21327;-85
2023/02/09 10:43:05;;;;;;;26.53;19.63;;;;;;;9.08;39.10;102792.47;1440696;91;22369;-85
2023/02/09 10:45:39;;;;;;;25.77;19.67;;;;;;;9.12;37.44;102789.59;1436299;91;21541;-85
2023/02/09 10:48:17;;;;;;;23.93;18.30;;;;;;;9.04;38.08;102793.10;1438219;91;21526;-85
2023/02/09 10:50:52;;;;;;;23.93;18.47;;;;;;;8.83;38.35;102783.16;1435887;91;22466;-85
2023/02/09 10:53:40;;;;;;;31.33;20.47;;;;;;;8.90;40.52;102781.08;1438746;91;22441;-85
2023/02/09 10:56:17;;;;;;;32.90;21.10;;;;;;;8.84;40.26;102778.28;1433319;91;21386;-83
2023/02/09 10:58:54;;;;;;;23.97;19.80;;;;;;;8.78;40.08;102776.81;1438945;90;21453;-85
2023/02/09 11:01:28;;;;;;;24.40;15.50;;;;;;;9.02;38.65;102781.28;1436410;91;21415;-85
2023/02/09 11:04:02;;;;;;;22.23;16.67;;;;;;;8.94;39.02;102787.42;1436177;91;21519;-85
2023/02/09 11:06:36;;;;;;;22.53;16.90;;;;;;;8.94;38.82;102776.86;1437149;91;21320;-85
2023/02/09 11:09:08;;;;;;;24.50;16.63;;;;;;;9.07;38.65;102778.88;1434678;91;21474;-85
2023/02/09 11:11:39;;;;;;;28.83;18.53;;;;;;;9.18;38.12;102781.81;1438606;91;22356;-84
2023/02/09 11:14:14;;;;;;;23.32;16.35;;;;;;;9.18;38.78;102780.50;1441222;91;21385;-83
2023/02/09 11:17:04;;;;;;;42.17;24.53;;;;;;;9.04;34.82;102779.89;1437843;91;21393;-84
2023/02/09 11:19:51;;;;;;;50.87;28.90;;;;;;;8.86;37.04;102772.47;1438109;91;21445;-86
2023/02/09 11:22:42;;;;;;;27.63;20.13;;;;;;;9.04;38.76;102772.81;1434898;89;21401;-85
2023/02/09 11:25:23;;;;;;;25.67;19.13;;;;;;;9.22;38.10;102775.42;1443816;90;22258;-84
2023/02/09 11:28:11;;;;;;;;;;;;;;;9.24;38.19;102770.91;1441872;90;21379;-83
2023/02/09 11:31:01;;;;;;;21.70;16.90;;;;;;;9.04;36.23;102767.53;1434676;91;20438;-85
2023/02/09 11:33:53;;;;;;;22.80;17.03;;;;;;;9.16;38.93;102766.03;1443483;90;21520;-85
2023/02/09 11:36:38;;;;;;;26.77;18.57;;;;;;;9.29;36.77;102763.57;1431083;90;21482;-85
2023/02/09 11:39:22;;;;;;;24.93;16.87;;;;;;;9.37;38.25;102762.70;1432682;90;22033;-85
2023/02/09 11:45:03;;;;;;;26.33;16.50;;;;;;;9.54;35.32;102767.55;1440506;90;21402;-85
2023/02/09 11:47:57;;;;;;;20.40;16.93;;;;;;;9.57;36.05;102763.41;1429540;90;21401;-84
2023/02/09 11:50:43;;;;;;;20.33;14.97;;;;;;;9.64;36.69;102762.16;1437240;90;21379;-85
2023/02/09 11:53:45;;;;;;;25.83;16.73;;;;;;;9.33;36.58;102757.20;1429685;90;21305;-85
2023/02/09 11:56:17;;;;;;;21.87;16.33;;;;;;;9.28;37.08;102755.74;1425536;91;21563;-86
2023/02/09 11:58:58;;;;;;;22.30;16.27;;;;;;;9.46;37.09;102754.73;1441370;90;21342;-86
2023/02/09 12:01:33;;;;;;;20.63;16.20;;;;;;;9.38;35.13;102746.36;1432466;90;21400;-85
2023/02/09 12:04:14;;;;;;;21.37;15.90;;;;;;;9.28;35.37;102744.70;1439507;90;21364;-85
2023/02/09 12:06:49;;;;;;;24.03;15.40;;;;;;;9.28;34.84;102737.25;1440470;90;21459;-85
2023/02/09 12:09:32;;;;;;;24.70;19.10;;;;;;;9.13;35.36;102738.92;1434811;91;21422;-85
2023/02/09 12:12:24;;;;;;;23.90;18.63;;;;;;;9.37;36.64;102738.91;1437256;91;21447;-84
2023/02/09 12:15:04;;;;;;;24.57;18.40;;;;;;;9.44;35.79;102740.30;1440584;91;22354;-85
2023/02/09 12:17:49;;;;;;;23.40;16.05;;;;;;;9.34;36.81;102728.98;1436501;90;21654;-85
2023/02/09 12:20:41;;;;;;;24.23;16.00;;;;;;;9.13;35.76;102727.04;1417783;91;21393;-85
2023/02/09 12:23:28;;;;;;;19.50;12.47;;;;;;;9.58;37.09;102722.36;1440147;90;21349;-84